Casar, North Carolina
Current Conditions -  °F | °C
As of 7:15 AM on Friday 28 Nov 2014 (Local Time) from KEHO Reporting Station
Clear Clear  
Wind Chill: -2°   Ceiling: Unl
Heat Index: -2°   Visibility: 10mi
Dew Point: -8°   Wind: 0mph
Humidity: 64%   Direction: NA
Pressure: 30.34"   Gusts: NA
Location:  35.51°N, 81.62°W
Report Text: KEHO 281215Z AUTO 00000KT 10SM CLR M02/M08 A3034 RMK AO2 T10241083
Loading
Personal Weather Stations






























Interactive Weather Map New forecast layout! Learn more

10-Day Weather Forecast

Advertisements
Track Severe Weather on mobile